createdAt,value
2018-08-19T00:00:47.559Z,17.30
2018-08-19T00:03:52.134Z,17.30
2018-08-19T00:06:56.526Z,17.40
2018-08-19T00:10:00.768Z,17.40
2018-08-19T00:13:06.974Z,17.40
2018-08-19T00:16:11.790Z,17.40
2018-08-19T00:19:16.017Z,17.40
2018-08-19T00:22:20.261Z,17.40
2018-08-19T00:25:42.539Z,17.40
2018-08-19T00:28:46.716Z,17.50
2018-08-19T00:31:51.676Z,17.50
2018-08-19T00:34:55.913Z,17.40
2018-08-19T00:38:00.552Z,17.40
2018-08-19T00:41:04.797Z,17.40
2018-08-19T00:44:09.054Z,17.40
2018-08-19T00:47:13.273Z,17.40
2018-08-19T00:50:17.549Z,17.40
2018-08-19T00:53:21.809Z,17.40
2018-08-19T00:56:26.052Z,17.40
2018-08-19T00:59:31.528Z,17.40
2018-08-19T01:02:35.876Z,17.40
2018-08-19T01:05:40.233Z,17.40
2018-08-19T01:08:44.470Z,17.40
2018-08-19T01:11:48.699Z,17.40
2018-08-19T01:14:52.903Z,17.40
2018-08-19T01:17:57.872Z,17.40
2018-08-19T01:21:10.719Z,17.40
2018-08-19T01:24:14.957Z,17.30
2018-08-19T01:27:19.209Z,17.20
2018-08-19T01:30:27.057Z,17.20
2018-08-19T01:33:31.281Z,17.10
2018-08-19T01:36:35.524Z,17.10
2018-08-19T01:39:39.949Z,17.00
2018-08-19T01:42:44.214Z,16.90
2018-08-19T01:45:48.460Z,17.00
2018-08-19T01:48:53.126Z,16.90
2018-08-19T01:51:57.634Z,16.90
2018-08-19T01:55:01.861Z,16.90
2018-08-19T01:58:06.269Z,16.90
2018-08-19T02:01:10.504Z,16.90
2018-08-19T02:04:14.757Z,17.00
2018-08-19T02:07:19.004Z,17.00
2018-08-19T02:10:24.446Z,17.00
2018-08-19T02:13:28.684Z,17.00
2018-08-19T02:16:32.954Z,17.10
2018-08-19T02:19:37.157Z,17.10
2018-08-19T02:22:45.925Z,17.10
2018-08-19T02:25:50.165Z,17.10
2018-08-19T02:28:54.405Z,17.10
2018-08-19T02:32:05.404Z,17.10
2018-08-19T02:35:09.624Z,17.10
2018-08-19T02:38:13.980Z,17.10
2018-08-19T02:41:18.222Z,17.10
2018-08-19T02:44:22.488Z,17.10
2018-08-19T02:47:26.718Z,17.10
2018-08-19T02:50:30.969Z,17.20
2018-08-19T02:53:35.233Z,17.10
2018-08-19T02:56:39.600Z,17.10
2018-08-19T02:59:43.861Z,17.10
2018-08-19T03:02:48.077Z,17.20
2018-08-19T03:05:56.933Z,17.20
2018-08-19T03:09:01.153Z,17.20
2018-08-19T03:12:10.244Z,17.20
2018-08-19T03:15:15.557Z,17.20
2018-08-19T03:18:19.810Z,17.20
2018-08-19T03:21:24.049Z,17.20
2018-08-19T03:24:28.333Z,17.20
2018-08-19T03:27:33.644Z,17.20
2018-08-19T03:30:38.066Z,17.30
2018-08-19T03:33:42.292Z,17.30
2018-08-19T03:36:46.530Z,17.40
2018-08-19T03:39:50.760Z,17.40
2018-08-19T03:42:55.344Z,17.30
2018-08-19T03:46:07.137Z,17.30
2018-08-19T03:49:11.390Z,17.30
2018-08-19T03:52:16.254Z,17.20
2018-08-19T03:55:28.780Z,17.20
2018-08-19T03:58:33.029Z,17.20
2018-08-19T04:01:44.335Z,17.20
2018-08-19T04:04:49.217Z,17.20
2018-08-19T04:07:53.441Z,17.20
2018-08-19T04:10:57.709Z,17.20
2018-08-19T04:14:01.929Z,17.20
2018-08-19T04:17:07.421Z,17.20
2018-08-19T04:20:11.648Z,17.30
2018-08-19T04:23:15.901Z,17.30
2018-08-19T04:26:20.113Z,17.30
2018-08-19T04:29:24.694Z,17.40
2018-08-19T04:32:31.168Z,17.50
2018-08-19T04:35:35.408Z,17.50
2018-08-19T04:38:39.637Z,17.50
2018-08-19T04:41:43.871Z,17.60
2018-08-19T04:44:48.117Z,17.60
2018-08-19T04:47:52.344Z,17.60
2018-08-19T04:50:57.290Z,17.60
2018-08-19T04:54:05.708Z,17.70
2018-08-19T04:57:09.988Z,17.80
2018-08-19T05:00:14.221Z,17.90
2018-08-19T05:03:18.481Z,18.00
2018-08-19T05:06:22.721Z,18.00
2018-08-19T05:09:27.013Z,18.10
2018-08-19T05:12:31.270Z,18.20
2018-08-19T05:15:35.616Z,18.20
2018-08-19T05:18:39.809Z,18.10
2018-08-19T05:21:44.073Z,18.20
2018-08-19T05:24:48.335Z,18.20
2018-08-19T05:27:57.969Z,18.20
2018-08-19T05:31:02.222Z,18.30
2018-08-19T05:34:07.101Z,18.30
2018-08-19T05:37:11.337Z,18.40
2018-08-19T05:40:15.587Z,18.40
2018-08-19T05:43:19.810Z,18.50
2018-08-19T05:46:24.080Z,18.40
2018-08-19T05:49:28.381Z,18.50
2018-08-19T05:52:32.617Z,18.50
2018-08-19T05:55:36.875Z,18.50
2018-08-19T05:58:41.068Z,18.50
2018-08-19T06:01:45.314Z,18.50
2018-08-19T06:04:49.641Z,18.50
2018-08-19T06:07:59.290Z,18.60
2018-08-19T06:11:03.554Z,18.50
2018-08-19T06:14:07.806Z,18.50
2018-08-19T06:17:12.082Z,18.50
2018-08-19T06:20:16.329Z,18.50
2018-08-19T06:23:22.096Z,18.50
2018-08-19T06:26:30.773Z,18.50
2018-08-19T06:29:47.793Z,18.50
2018-08-19T06:32:52.112Z,18.50
2018-08-19T06:35:56.352Z,18.50
2018-08-19T06:39:00.586Z,18.50
2018-08-19T06:42:04.840Z,18.60
2018-08-19T06:45:10.265Z,18.60
2018-08-19T06:48:14.522Z,18.70
2018-08-19T06:51:18.941Z,18.80
2018-08-19T06:54:23.024Z,18.80
2018-08-19T06:57:29.730Z,18.90
2018-08-19T07:00:34.002Z,18.90
2018-08-19T07:03:41.599Z,19.00
2018-08-19T07:06:46.049Z,19.10
2018-08-19T07:09:50.339Z,19.20
2018-08-19T07:13:00.760Z,19.20
2018-08-19T07:16:09.756Z,19.20
2018-08-19T07:19:14.037Z,19.30
2018-08-19T07:22:20.246Z,19.30
2018-08-19T07:25:24.515Z,19.60
2018-08-19T07:28:29.788Z,19.40
2018-08-19T07:31:34.033Z,19.50
2018-08-19T07:34:38.389Z,19.50
2018-08-19T07:37:43.026Z,19.50
2018-08-19T07:40:47.416Z,19.50
2018-08-19T07:43:51.757Z,19.50
2018-08-19T07:46:56.056Z,19.50
2018-08-19T07:50:00.426Z,19.50
2018-08-19T07:53:04.728Z,19.50
2018-08-19T07:56:09.095Z,19.50
2018-08-19T07:59:15.090Z,19.50
2018-08-19T08:02:19.566Z,19.60
2018-08-19T08:05:24.828Z,19.60
2018-08-19T08:08:29.157Z,19.50
2018-08-19T08:11:33.606Z,19.50
2018-08-19T08:14:38.766Z,19.60
2018-08-19T08:17:43.132Z,19.50
2018-08-19T08:20:47.449Z,19.50
2018-08-19T08:23:51.984Z,19.60
2018-08-19T08:26:56.356Z,19.50
2018-08-19T08:30:05.041Z,19.50
2018-08-19T08:33:09.369Z,19.50
2018-08-19T08:36:13.894Z,19.40
2018-08-19T08:39:18.192Z,19.50
2018-08-19T08:42:23.583Z,19.50
2018-08-19T08:45:32.851Z,19.50
2018-08-19T08:48:37.878Z,19.60
2018-08-19T08:51:42.324Z,19.60
2018-08-19T08:54:50.649Z,19.60
2018-08-19T08:57:55.912Z,19.60
2018-08-19T09:01:01.032Z,19.70
2018-08-19T09:04:05.356Z,19.90
2018-08-19T09:07:10.209Z,20.00
2018-08-19T09:10:14.837Z,20.00
2018-08-19T09:13:19.212Z,20.10
2018-08-19T09:16:23.510Z,20.20
2018-08-19T09:19:28.349Z,20.20
2018-08-19T09:22:32.716Z,20.20
2018-08-19T09:25:37.081Z,20.30
2018-08-19T09:28:41.358Z,20.30
2018-08-19T09:31:45.795Z,20.30
2018-08-19T09:34:50.299Z,20.30
2018-08-19T09:38:01.507Z,20.30
2018-08-19T09:41:07.138Z,20.30
2018-08-19T09:44:11.588Z,20.30
2018-08-19T09:47:17.004Z,20.30
2018-08-19T09:50:22.740Z,20.40
2018-08-19T09:53:27.158Z,20.50
2018-08-19T09:56:36.737Z,20.50
2018-08-19T09:59:41.166Z,20.50
2018-08-19T10:02:49.880Z,20.60
2018-08-19T10:05:55.334Z,20.60
2018-08-19T10:08:59.842Z,20.60
2018-08-19T10:12:04.236Z,20.60
2018-08-19T10:15:08.673Z,20.50
2018-08-19T10:18:13.161Z,20.40
2018-08-19T10:21:19.155Z,20.50
2018-08-19T10:24:29.110Z,20.40
2018-08-19T10:27:33.341Z,20.40
2018-08-19T10:30:47.190Z,20.40
2018-08-19T10:33:52.199Z,20.40
2018-08-19T10:36:57.174Z,20.30
2018-08-19T10:40:01.512Z,20.40
2018-08-19T10:43:08.761Z,20.40
2018-08-19T10:46:13.092Z,20.40
2018-08-19T10:49:17.324Z,20.40
2018-08-19T10:52:26.124Z,20.40
2018-08-19T10:55:30.541Z,20.40
2018-08-19T10:58:34.815Z,20.40
2018-08-19T11:01:39.164Z,20.30
2018-08-19T11:04:43.516Z,20.40
2018-08-19T11:07:47.725Z,20.50
2018-08-19T11:10:52.024Z,20.60
2018-08-19T11:13:56.311Z,20.60
2018-08-19T11:17:00.582Z,20.60
2018-08-19T11:20:04.880Z,20.70
2018-08-19T11:23:15.310Z,20.70
2018-08-19T11:26:20.272Z,20.70
2018-08-19T11:29:25.269Z,20.70
2018-08-19T11:32:37.473Z,20.70
2018-08-19T11:35:47.592Z,20.80
2018-08-19T11:38:53.473Z,20.90
2018-08-19T11:41:59.648Z,21.00
2018-08-19T11:45:09.017Z,21.00
2018-08-19T11:48:13.478Z,21.00
2018-08-19T11:51:18.082Z,20.90
2018-08-19T11:54:23.425Z,20.90
2018-08-19T11:57:28.695Z,20.90
2018-08-19T12:00:38.640Z,20.90
2018-08-19T12:04:01.365Z,21.00
2018-08-19T12:07:06.393Z,21.00
2018-08-19T12:10:10.638Z,21.00
2018-08-19T12:13:14.870Z,21.00
2018-08-19T12:16:19.977Z,21.00
2018-08-19T12:19:31.753Z,21.00
2018-08-19T12:22:36.017Z,21.00
2018-08-19T12:25:40.230Z,21.00
2018-08-19T12:28:44.479Z,20.90
2018-08-19T12:31:49.697Z,20.90
2018-08-19T12:34:55.286Z,20.90
2018-08-19T12:37:59.524Z,21.10
2018-08-19T12:41:05.186Z,21.10
2018-08-19T12:44:09.446Z,21.20
2018-08-19T12:47:18.333Z,21.20
2018-08-19T12:50:22.643Z,21.30
2018-08-19T12:53:26.821Z,21.30
2018-08-19T12:56:31.094Z,21.20
2018-08-19T12:59:35.861Z,21.20
2018-08-19T13:02:43.244Z,21.10
2018-08-19T13:06:00.920Z,21.00
2018-08-19T13:09:07.580Z,21.00
2018-08-19T13:12:13.012Z,21.30
2018-08-19T13:15:17.240Z,21.30
2018-08-19T13:18:28.509Z,21.40
2018-08-19T13:21:32.761Z,21.40
2018-08-19T13:24:39.002Z,21.40
2018-08-19T13:27:43.217Z,21.30
2018-08-19T13:30:47.472Z,21.10
2018-08-19T13:33:51.723Z,21.10
2018-08-19T13:36:56.481Z,21.20
2018-08-19T13:40:00.709Z,21.10
2018-08-19T13:43:05.300Z,21.20
2018-08-19T13:46:09.523Z,21.20
2018-08-19T13:49:13.791Z,21.20
2018-08-19T13:52:18.042Z,21.20
2018-08-19T13:55:22.289Z,21.20
2018-08-19T13:58:26.489Z,21.10
2018-08-19T14:01:30.742Z,21.10
2018-08-19T14:04:34.956Z,21.10
2018-08-19T14:07:39.193Z,21.20
2018-08-19T14:10:43.437Z,21.10
2018-08-19T14:13:47.670Z,21.10
2018-08-19T14:16:51.904Z,21.10
2018-08-19T14:19:56.138Z,21.20
2018-08-19T14:23:00.392Z,21.30
2018-08-19T14:26:04.643Z,21.40
2018-08-19T14:29:08.924Z,21.50
2018-08-19T14:32:45.573Z,21.60
2018-08-19T14:35:49.913Z,21.60
2018-08-19T14:38:54.162Z,21.50
2018-08-19T14:41:58.397Z,21.40
2018-08-19T14:45:02.686Z,21.40
2018-08-19T14:48:07.087Z,21.40
2018-08-19T14:51:11.334Z,21.40
2018-08-19T14:54:18.889Z,21.40
2018-08-19T14:57:23.225Z,21.40
2018-08-19T15:00:27.463Z,21.40
2018-08-19T15:03:32.129Z,21.40
2018-08-19T15:06:36.369Z,21.40
2018-08-19T15:09:40.615Z,21.50
2018-08-19T15:12:44.833Z,21.60
2018-08-19T15:15:49.041Z,21.70
2018-08-19T15:18:53.238Z,21.70
2018-08-19T15:21:57.579Z,21.80
2018-08-19T15:25:01.842Z,21.90
2018-08-19T15:28:06.072Z,22.00
2018-08-19T15:31:14.364Z,22.00
2018-08-19T15:34:19.265Z,22.00
2018-08-19T15:37:23.489Z,22.00
2018-08-19T15:40:43.516Z,21.90
2018-08-19T15:43:47.750Z,21.80
2018-08-19T15:46:52.006Z,21.70
2018-08-19T15:50:13.347Z,21.70
2018-08-19T15:53:18.504Z,21.70
2018-08-19T15:56:22.748Z,21.70
2018-08-19T15:59:27.027Z,21.60
2018-08-19T16:02:31.281Z,21.70
2018-08-19T16:05:35.504Z,21.70
2018-08-19T16:08:39.729Z,21.70
2018-08-19T16:11:44.361Z,21.70
2018-08-19T16:14:48.677Z,21.60
2018-08-19T16:17:54.747Z,21.60
2018-08-19T16:21:04.190Z,21.60
2018-08-19T16:24:09.022Z,21.60
2018-08-19T16:27:13.300Z,21.50
2018-08-19T16:30:17.609Z,21.40
2018-08-19T16:33:21.875Z,21.40
2018-08-19T16:36:26.118Z,21.40
2018-08-19T16:39:30.349Z,21.40
2018-08-19T16:42:34.584Z,21.40
2018-08-19T16:45:38.814Z,21.50
2018-08-19T16:48:43.037Z,21.40
2018-08-19T16:51:47.279Z,21.50
2018-08-19T16:54:51.533Z,21.40
2018-08-19T16:57:55.727Z,21.40
2018-08-19T17:00:59.974Z,21.30
2018-08-19T17:04:04.225Z,21.30
2018-08-19T17:07:10.857Z,21.30
2018-08-19T17:10:15.224Z,21.20
2018-08-19T17:13:19.346Z,21.20
2018-08-19T17:16:23.598Z,21.10
2018-08-19T17:19:27.881Z,21.10
2018-08-19T17:22:32.137Z,21.00
2018-08-19T17:25:36.367Z,21.00
2018-08-19T17:28:40.589Z,20.90
2018-08-19T17:31:44.800Z,20.80
2018-08-19T17:34:49.021Z,20.80
2018-08-19T17:37:54.685Z,20.70
2018-08-19T17:40:59.349Z,20.60
2018-08-19T17:44:03.859Z,20.50
2018-08-19T17:47:08.185Z,20.40
2018-08-19T17:50:17.056Z,20.40
2018-08-19T17:53:21.328Z,20.30
2018-08-19T17:56:25.614Z,20.10
2018-08-19T17:59:29.933Z,19.80
2018-08-19T18:02:34.150Z,19.50
2018-08-19T18:05:38.389Z,19.40
2018-08-19T18:08:47.905Z,19.30
2018-08-19T18:11:57.347Z,19.20
2018-08-19T18:15:02.250Z,19.00
2018-08-19T18:18:06.842Z,18.90
2018-08-19T18:21:10.923Z,18.90
2018-08-19T18:24:15.204Z,18.90
2018-08-19T18:27:20.332Z,18.90
2018-08-19T18:30:26.329Z,18.90
2018-08-19T18:33:30.592Z,18.90
2018-08-19T18:36:35.771Z,18.90
2018-08-19T18:39:43.509Z,19.00
2018-08-19T18:42:47.725Z,19.00
2018-08-19T18:45:52.041Z,19.00
2018-08-19T18:49:02.753Z,19.00
2018-08-19T18:52:12.310Z,19.10
2018-08-19T18:55:16.540Z,19.10
2018-08-19T18:58:20.776Z,19.20
2018-08-19T19:01:25.065Z,19.20
2018-08-19T19:04:29.421Z,19.20
2018-08-19T19:07:33.721Z,19.20
2018-08-19T19:10:38.677Z,19.30
2018-08-19T19:13:42.909Z,19.30
2018-08-19T19:16:50.924Z,19.30
2018-08-19T19:19:55.180Z,19.40
2018-08-19T19:23:03.336Z,19.40
2018-08-19T19:26:08.361Z,19.40
2018-08-19T19:29:20.857Z,19.40
2018-08-19T19:32:25.537Z,19.30
2018-08-19T19:35:30.313Z,19.20
2018-08-19T19:38:37.722Z,19.00
2018-08-19T19:41:41.929Z,18.90
2018-08-19T19:44:46.161Z,18.90
2018-08-19T19:47:50.420Z,18.90
2018-08-19T19:50:54.664Z,18.90
2018-08-19T19:53:58.932Z,18.90
2018-08-19T19:57:03.190Z,18.90
2018-08-19T20:00:07.426Z,18.90
2018-08-19T20:03:11.681Z,18.80
2018-08-19T20:06:15.937Z,18.80
2018-08-19T20:09:20.182Z,18.70
2018-08-19T20:12:29.784Z,18.70
2018-08-19T20:15:33.996Z,18.70
2018-08-19T20:18:38.233Z,18.60
2018-08-19T20:21:42.492Z,18.70
2018-08-19T20:24:47.129Z,18.60
2018-08-19T20:27:55.420Z,18.70
2018-08-19T20:30:59.675Z,18.70
2018-08-19T20:34:03.996Z,18.70
2018-08-19T20:37:08.205Z,18.70
2018-08-19T20:40:12.457Z,18.70
2018-08-19T20:43:20.649Z,18.70
2018-08-19T20:46:24.889Z,18.80
2018-08-19T20:49:29.131Z,18.70
2018-08-19T20:52:43.304Z,18.80
2018-08-19T20:55:48.048Z,18.80
2018-08-19T20:58:52.301Z,18.80
2018-08-19T21:01:56.569Z,18.70
2018-08-19T21:05:00.836Z,18.60
2018-08-19T21:08:11.192Z,18.50
2018-08-19T21:11:15.449Z,18.50
2018-08-19T21:14:19.712Z,18.50
2018-08-19T21:17:23.940Z,18.40
2018-08-19T21:20:28.189Z,18.30
2018-08-19T21:23:32.420Z,18.30
2018-08-19T21:26:36.640Z,18.30
2018-08-19T21:29:40.915Z,18.20
2018-08-19T21:32:45.140Z,18.20
2018-08-19T21:35:50.981Z,18.20
2018-08-19T21:38:55.201Z,18.20
2018-08-19T21:41:59.470Z,18.20
2018-08-19T21:45:03.713Z,18.20
2018-08-19T21:48:16.050Z,18.20
2018-08-19T21:51:20.284Z,18.20
2018-08-19T21:54:24.546Z,18.30
2018-08-19T21:57:28.792Z,18.30
2018-08-19T22:00:36.005Z,18.40
2018-08-19T22:03:45.478Z,18.40
2018-08-19T22:06:50.070Z,18.40
2018-08-19T22:09:54.342Z,18.30
2018-08-19T22:12:58.571Z,18.30
2018-08-19T22:16:02.817Z,18.30
2018-08-19T22:19:07.037Z,18.30
2018-08-19T22:22:11.273Z,18.20
2018-08-19T22:25:15.532Z,18.30
2018-08-19T22:28:19.766Z,18.30
2018-08-19T22:31:27.210Z,18.30
2018-08-19T22:34:31.428Z,18.30
2018-08-19T22:37:35.677Z,18.30
2018-08-19T22:40:39.924Z,18.40
2018-08-19T22:43:44.179Z,18.30
2018-08-19T22:46:48.442Z,18.30
2018-08-19T22:49:52.668Z,18.30
2018-08-19T22:52:56.952Z,18.40
2018-08-19T22:56:01.285Z,18.40
2018-08-19T22:59:05.543Z,18.30
2018-08-19T23:02:09.784Z,18.30
2018-08-19T23:05:14.026Z,18.40
2018-08-19T23:08:22.356Z,18.40
2018-08-19T23:11:33.579Z,18.40
2018-08-19T23:14:54.906Z,18.40
2018-08-19T23:17:59.181Z,18.40
2018-08-19T23:21:03.461Z,18.40
2018-08-19T23:24:07.749Z,18.40
2018-08-19T23:27:11.992Z,18.40
2018-08-19T23:30:16.241Z,18.40
2018-08-19T23:33:20.666Z,18.40
2018-08-19T23:36:24.902Z,18.50
2018-08-19T23:39:29.178Z,18.40
2018-08-19T23:42:33.414Z,18.50
2018-08-19T23:45:37.750Z,18.50
2018-08-19T23:48:41.968Z,18.50
2018-08-19T23:51:46.237Z,18.50
2018-08-19T23:54:50.469Z,18.50
2018-08-19T23:57:54.720Z,18.50
